Forstraum — UBVI9 — position and weather

sailwx.info

Track history (hours):
 
Tides and Currents Weather Stations Pressure Air Temp Water Temp Dewpoint Dewpoint Depression Visibility Wind Speed Wind Dir Waves Ship Positions

Forstraum

Last reported at 2017-Dec-08 13:02 UTC. Time now 2017-Dec-13 11:28 UTC.
Position N 71°32' E 026°50'.

Length 85 m; draft 5.5 m.

Type: Ship. MMSI: 273353670.

Date/timePositionNaut miles runAvg speedWind from/ knotsBaromVisibWave heightAir tempDewpointWater temp
2017-Dec-08 13:02N 71°32' E 026°50'010.6
2017-Dec-08 13:00N 71°32' E 026°50'510.3
2017-Dec-08 12:31N 71°27' E 026°50'4 8.6
2017-Dec-08 12:01N 71°22' E 026°49'2 4.3
2017-Dec-08 11:30N 71°23' E 026°56'2 4.1
2017-Dec-08 11:00N 71°23' E 027°02'2 4.1
2017-Dec-08 10:30N 71°24' E 027°08'2 4.4
2017-Dec-08 10:00N 71°25' E 027°15'2 4.5
2017-Dec-08 09:30N 71°26' E 027°21'2 4.5
2017-Dec-08 09:00N 71°27' E 027°27'2 4.2
2017-Dec-08 08:30N 71°28' E 027°33'2 4.0
2017-Dec-08 08:00N 71°28' E 027°39'112 5.7
2017-Dec-07 12:31N 70°15' E 031°56'010.1
2017-Dec-07 12:30N 70°15' E 031°56'510.0
2017-Dec-07 12:00N 70°10' E 032°01'  
2017-Dec-04 10:24N 68°56' E 033°02'0 0.0
2017-Dec-04 10:00N 68°56' E 033°02'0 0.0
2017-Dec-04 09:30N 68°56' E 033°02'0 0.0
2017-Dec-04 09:00N 68°56' E 033°02'0 0.0
2017-Dec-04 08:30N 68°56' E 033°02'0 0.0
2017-Dec-04 08:00N 68°56' E 033°02'0 0.0
2017-Dec-04 07:30N 68°56' E 033°02'0 0.0
2017-Dec-04 07:00N 68°56' E 033°02'0 0.0
2017-Dec-04 06:30N 68°56' E 033°02'0 0.0
2017-Dec-04 06:00N 68°56' E 033°02'0 0.0
2017-Dec-04 05:30N 68°56' E 033°02'0 0.0
2017-Dec-04 05:00N 68°56' E 033°02'0 0.0
2017-Dec-04 04:30N 68°56' E 033°02'0 0.0
2017-Dec-04 04:00N 68°56' E 033°02'0 0.0
2017-Dec-04 03:30N 68°56' E 033°02'0 0.0
2017-Dec-04 03:00N 68°56' E 033°02'0 0.0
2017-Dec-04 02:30N 68°56' E 033°02'0 0.0
2017-Dec-04 02:00N 68°56' E 033°02'0 0.0
2017-Dec-04 01:30N 68°56' E 033°02'0 0.0
2017-Dec-04 01:00N 68°56' E 033°02'0 0.0
2017-Dec-04 00:30N 68°56' E 033°02'0 0.0
2017-Dec-04 00:00N 68°56' E 033°02'0 0.0
2017-Dec-03 23:30N 68°56' E 033°02'0 0.0
2017-Dec-03 23:00N 68°56' E 033°02'0 0.0
2017-Dec-03 22:30N 68°56' E 033°02'0 0.0
2017-Dec-03 22:00N 68°56' E 033°02'0 0.0
2017-Dec-03 21:30N 68°56' E 033°02'0 0.0
2017-Dec-03 21:00N 68°56' E 033°02'0 0.0
2017-Dec-03 20:30N 68°56' E 033°02'0 0.0
2017-Dec-03 20:00N 68°56' E 033°02'0 0.0
2017-Dec-03 19:30N 68°56' E 033°02'0 0.0
2017-Dec-03 19:00N 68°56' E 033°02'0 0.0
2017-Dec-03 18:30N 68°56' E 033°02'0 0.0
2017-Dec-03 18:00N 68°56' E 033°02'0 0.0
2017-Dec-03 17:30N 68°56' E 033°02'0 0.0
2017-Dec-03 17:00N 68°56' E 033°02'0 0.0
2017-Dec-03 16:30N 68°56' E 033°02'0 0.0
2017-Dec-03 16:00N 68°56' E 033°02'0 0.0
2017-Dec-03 15:30N 68°56' E 033°02'0 0.0
2017-Dec-03 15:00N 68°56' E 033°02'0 0.0
2017-Dec-03 14:30N 68°56' E 033°02'0 0.0
2017-Dec-03 14:00N 68°56' E 033°02'0 0.0
2017-Dec-03 13:30N 68°56' E 033°02'0 0.0
2017-Dec-03 13:00N 68°56' E 033°02'0 0.0
2017-Dec-03 12:30N 68°56' E 033°02'0 0.0
2017-Dec-03 12:00N 68°56' E 033°02'0 0.0
2017-Dec-03 11:30N 68°56' E 033°02'0 0.0
2017-Dec-03 10:57N 68°56' E 033°02'0 0.0
2017-Dec-03 10:30N 68°56' E 033°02'0 0.0
2017-Dec-03 10:00N 68°56' E 033°02'0 0.0
2017-Dec-03 09:30N 68°56' E 033°02'0 0.0
2017-Dec-03 09:00N 68°56' E 033°02'0 0.0
2017-Dec-03 08:30N 68°56' E 033°02'0 0.0
2017-Dec-03 08:00N 68°56' E 033°02'0 0.0
2017-Dec-03 07:30N 68°56' E 033°02'0 0.0
2017-Dec-03 07:00N 68°56' E 033°02'0 0.0
2017-Dec-03 06:30N 68°56' E 033°02'0 0.0
2017-Dec-03 06:00N 68°56' E 033°02'0 0.0
2017-Dec-03 05:30N 68°56' E 033°02'0 0.0
2017-Dec-03 05:00N 68°56' E 033°02'0 0.0
2017-Dec-03 04:30N 68°56' E 033°02'0 0.0
2017-Dec-03 04:00N 68°56' E 033°02'0 0.0
2017-Dec-03 03:30N 68°56' E 033°02'0 0.0
2017-Dec-03 03:00N 68°56' E 033°02'0 0.0
2017-Dec-03 02:30N 68°56' E 033°02'0 0.0
2017-Dec-03 01:59N 68°56' E 033°02'0 0.0
2017-Dec-03 01:30N 68°56' E 033°02'0 0.0
2017-Dec-03 01:00N 68°56' E 033°02'0 0.0
2017-Dec-03 00:30N 68°56' E 033°02'0 0.0
2017-Dec-03 00:00N 68°56' E 033°02'0 0.0
2017-Dec-02 23:30N 68°56' E 033°02'0 0.0
2017-Dec-02 22:57N 68°56' E 033°02'0 0.0
2017-Dec-02 22:30N 68°56' E 033°02'0 0.0
2017-Dec-02 22:00N 68°56' E 033°02'0 0.0
2017-Dec-02 21:30N 68°56' E 033°02'0 0.0
2017-Dec-02 21:00N 68°56' E 033°02'0 0.0
2017-Dec-02 20:30N 68°56' E 033°02'0 0.0
2017-Dec-02 20:00N 68°56' E 033°02'0 0.0
2017-Dec-02 19:30N 68°56' E 033°02'0 0.0
2017-Dec-02 19:00N 68°56' E 033°02'0 0.0
2017-Dec-02 18:30N 68°56' E 033°02'0 0.0
2017-Dec-02 18:00N 68°56' E 033°02'0 0.0
2017-Dec-02 17:30N 68°56' E 033°02'0 0.0
2017-Dec-02 17:00N 68°56' E 033°02'0 0.0
2017-Dec-02 16:30N 68°56' E 033°02'0 0.0
2017-Dec-02 16:00N 68°56' E 033°02'0 0.8
2017-Dec-02 15:31N 68°56' E 033°01'0 0.7
2017-Dec-02 15:00N 68°57' E 033°02'0 0.0
2017-Dec-02 14:30N 68°57' E 033°02'0 0.0
2017-Dec-02 14:00N 68°57' E 033°02'0 0.0
2017-Dec-02 13:30N 68°57' E 033°02'0 0.0
2017-Dec-02 13:00N 68°57' E 033°02'0 0.0
2017-Dec-02 12:30N 68°57' E 033°02'0 0.0
2017-Dec-02 12:00N 68°57' E 033°02'0 0.0
2017-Dec-02 11:30N 68°57' E 033°02'0 0.0
2017-Dec-02 11:00N 68°57' E 033°02'0 0.0
2017-Dec-02 10:30N 68°57' E 033°02'0 0.0
2017-Dec-02 10:00N 68°57' E 033°02'0 0.0
2017-Dec-02 09:30N 68°57' E 033°02'0 0.0
2017-Dec-02 09:00N 68°57' E 033°02'0 0.0
2017-Dec-02 08:30N 68°57' E 033°02'0 0.0
2017-Dec-02 08:00N 68°57' E 033°02'0 0.0
2017-Dec-02 07:30N 68°57' E 033°02'0 0.0
2017-Dec-02 07:00N 68°57' E 033°02'0 0.0
2017-Dec-02 06:30N 68°57' E 033°02'0 0.0
2017-Dec-02 06:00N 68°57' E 033°02'0 0.0
2017-Dec-02 05:30N 68°57' E 033°02'0 0.0
2017-Dec-02 05:00N 68°57' E 033°02'0 0.0
2017-Dec-02 04:30N 68°57' E 033°02'0 0.0
2017-Dec-02 04:00N 68°57' E 033°02'0 0.0
2017-Dec-02 03:30N 68°57' E 033°02'0 0.0
2017-Dec-02 03:00N 68°57' E 033°02'0 0.0
2017-Dec-02 02:30N 68°57' E 033°02'0 0.0
2017-Dec-02 02:00N 68°57' E 033°02'0 0.8
2017-Dec-02 01:30N 68°57' E 033°01'1 1.4
2017-Dec-02 01:00N 68°58' E 033°01'3 5.9
2017-Dec-02 00:31N 69°01' E 033°03'  
Track history (hours):
 
Tides and Currents Weather Stations Pressure Air Temp Water Temp Dewpoint Dewpoint Depression Visibility Wind Speed Wind Dir Waves Ship Positions

Forstraum

Last reported at 2017-Dec-08 13:02 UTC. Time now 2017-Dec-13 11:28 UTC.
Position N 71°32' E 026°50'.

Length 85 m; draft 5.5 m.

Type: Ship. MMSI: 273353670.

Date/timePositionNaut miles runAvg speedWind from/ knotsBaromVisibWave heightAir tempDewpointWater temp
2017-Dec-08 13:02N 71°32' E 026°50'010.6
2017-Dec-08 13:00N 71°32' E 026°50'510.3
2017-Dec-08 12:31N 71°27' E 026°50'4 8.6
2017-Dec-08 12:01N 71°22' E 026°49'2 4.3
2017-Dec-08 11:30N 71°23' E 026°56'2 4.1
2017-Dec-08 11:00N 71°23' E 027°02'2 4.1
2017-Dec-08 10:30N 71°24' E 027°08'2 4.4
2017-Dec-08 10:00N 71°25' E 027°15'2 4.5
2017-Dec-08 09:30N 71°26' E 027°21'2 4.5
2017-Dec-08 09:00N 71°27' E 027°27'2 4.2
2017-Dec-08 08:30N 71°28' E 027°33'2 4.0
2017-Dec-08 08:00N 71°28' E 027°39'112 5.7
2017-Dec-07 12:31N 70°15' E 031°56'010.1
2017-Dec-07 12:30N 70°15' E 031°56'510.0
2017-Dec-07 12:00N 70°10' E 032°01'  
2017-Dec-04 10:24N 68°56' E 033°02'0 0.0
2017-Dec-04 10:00N 68°56' E 033°02'0 0.0
2017-Dec-04 09:30N 68°56' E 033°02'0 0.0
2017-Dec-04 09:00N 68°56' E 033°02'0 0.0
2017-Dec-04 08:30N 68°56' E 033°02'0 0.0
2017-Dec-04 08:00N 68°56' E 033°02'0 0.0
2017-Dec-04 07:30N 68°56' E 033°02'0 0.0
2017-Dec-04 07:00N 68°56' E 033°02'0 0.0
2017-Dec-04 06:30N 68°56' E 033°02'0 0.0
2017-Dec-04 06:00N 68°56' E 033°02'0 0.0
2017-Dec-04 05:30N 68°56' E 033°02'0 0.0
2017-Dec-04 05:00N 68°56' E 033°02'0 0.0
2017-Dec-04 04:30N 68°56' E 033°02'0 0.0
2017-Dec-04 04:00N 68°56' E 033°02'0 0.0
2017-Dec-04 03:30N 68°56' E 033°02'0 0.0
2017-Dec-04 03:00N 68°56' E 033°02'0 0.0
2017-Dec-04 02:30N 68°56' E 033°02'0 0.0
2017-Dec-04 02:00N 68°56' E 033°02'0 0.0
2017-Dec-04 01:30N 68°56' E 033°02'0 0.0
2017-Dec-04 01:00N 68°56' E 033°02'0 0.0
2017-Dec-04 00:30N 68°56' E 033°02'0 0.0
2017-Dec-04 00:00N 68°56' E 033°02'0 0.0
2017-Dec-03 23:30N 68°56' E 033°02'0 0.0
2017-Dec-03 23:00N 68°56' E 033°02'0 0.0
2017-Dec-03 22:30N 68°56' E 033°02'0 0.0
2017-Dec-03 22:00N 68°56' E 033°02'0 0.0
2017-Dec-03 21:30N 68°56' E 033°02'0 0.0
2017-Dec-03 21:00N 68°56' E 033°02'0 0.0
2017-Dec-03 20:30N 68°56' E 033°02'0 0.0
2017-Dec-03 20:00N 68°56' E 033°02'0 0.0
2017-Dec-03 19:30N 68°56' E 033°02'0 0.0
2017-Dec-03 19:00N 68°56' E 033°02'0 0.0
2017-Dec-03 18:30N 68°56' E 033°02'0 0.0
2017-Dec-03 18:00N 68°56' E 033°02'0 0.0
2017-Dec-03 17:30N 68°56' E 033°02'0 0.0
2017-Dec-03 17:00N 68°56' E 033°02'0 0.0
2017-Dec-03 16:30N 68°56' E 033°02'0 0.0
2017-Dec-03 16:00N 68°56' E 033°02'0 0.0
2017-Dec-03 15:30N 68°56' E 033°02'0 0.0
2017-Dec-03 15:00N 68°56' E 033°02'0 0.0
2017-Dec-03 14:30N 68°56' E 033°02'0 0.0
2017-Dec-03 14:00N 68°56' E 033°02'0 0.0
2017-Dec-03 13:30N 68°56' E 033°02'0 0.0
2017-Dec-03 13:00N 68°56' E 033°02'0 0.0
2017-Dec-03 12:30N 68°56' E 033°02'0 0.0
2017-Dec-03 12:00N 68°56' E 033°02'0 0.0
2017-Dec-03 11:30N 68°56' E 033°02'0 0.0
2017-Dec-03 10:57N 68°56' E 033°02'0 0.0
2017-Dec-03 10:30N 68°56' E 033°02'0 0.0
2017-Dec-03 10:00N 68°56' E 033°02'0 0.0
2017-Dec-03 09:30N 68°56' E 033°02'0 0.0
2017-Dec-03 09:00N 68°56' E 033°02'0 0.0
2017-Dec-03 08:30N 68°56' E 033°02'0 0.0
2017-Dec-03 08:00N 68°56' E 033°02'0 0.0
2017-Dec-03 07:30N 68°56' E 033°02'0 0.0
2017-Dec-03 07:00N 68°56' E 033°02'0 0.0
2017-Dec-03 06:30N 68°56' E 033°02'0 0.0
2017-Dec-03 06:00N 68°56' E 033°02'0 0.0
2017-Dec-03 05:30N 68°56' E 033°02'0 0.0
2017-Dec-03 05:00N 68°56' E 033°02'0 0.0
2017-Dec-03 04:30N 68°56' E 033°02'0 0.0
2017-Dec-03 04:00N 68°56' E 033°02'0 0.0
2017-Dec-03 03:30N 68°56' E 033°02'0 0.0
2017-Dec-03 03:00N 68°56' E 033°02'0 0.0
2017-Dec-03 02:30N 68°56' E 033°02'0 0.0
2017-Dec-03 01:59N 68°56' E 033°02'0 0.0
2017-Dec-03 01:30N 68°56' E 033°02'0 0.0
2017-Dec-03 01:00N 68°56' E 033°02'0 0.0
2017-Dec-03 00:30N 68°56' E 033°02'0 0.0
2017-Dec-03 00:00N 68°56' E 033°02'0 0.0
2017-Dec-02 23:30N 68°56' E 033°02'0 0.0
2017-Dec-02 22:57N 68°56' E 033°02'0 0.0
2017-Dec-02 22:30N 68°56' E 033°02'0 0.0
2017-Dec-02 22:00N 68°56' E 033°02'0 0.0
2017-Dec-02 21:30N 68°56' E 033°02'0 0.0
2017-Dec-02 21:00N 68°56' E 033°02'0 0.0
2017-Dec-02 20:30N 68°56' E 033°02'0 0.0
2017-Dec-02 20:00N 68°56' E 033°02'0 0.0
2017-Dec-02 19:30N 68°56' E 033°02'0 0.0
2017-Dec-02 19:00N 68°56' E 033°02'0 0.0
2017-Dec-02 18:30N 68°56' E 033°02'0 0.0
2017-Dec-02 18:00N 68°56' E 033°02'0 0.0
2017-Dec-02 17:30N 68°56' E 033°02'0 0.0
2017-Dec-02 17:00N 68°56' E 033°02'0 0.0
2017-Dec-02 16:30N 68°56' E 033°02'0 0.0
2017-Dec-02 16:00N 68°56' E 033°02'0 0.8
2017-Dec-02 15:31N 68°56' E 033°01'0 0.7
2017-Dec-02 15:00N 68°57' E 033°02'0 0.0
2017-Dec-02 14:30N 68°57' E 033°02'0 0.0
2017-Dec-02 14:00N 68°57' E 033°02'0 0.0
2017-Dec-02 13:30N 68°57' E 033°02'0 0.0
2017-Dec-02 13:00N 68°57' E 033°02'0 0.0
2017-Dec-02 12:30N 68°57' E 033°02'0 0.0
2017-Dec-02 12:00N 68°57' E 033°02'0 0.0
2017-Dec-02 11:30N 68°57' E 033°02'0 0.0
2017-Dec-02 11:00N 68°57' E 033°02'0 0.0
2017-Dec-02 10:30N 68°57' E 033°02'0 0.0
2017-Dec-02 10:00N 68°57' E 033°02'0 0.0
2017-Dec-02 09:30N 68°57' E 033°02'0 0.0
2017-Dec-02 09:00N 68°57' E 033°02'0 0.0
2017-Dec-02 08:30N 68°57' E 033°02'0 0.0
2017-Dec-02 08:00N 68°57' E 033°02'0 0.0
2017-Dec-02 07:30N 68°57' E 033°02'0 0.0
2017-Dec-02 07:00N 68°57' E 033°02'0 0.0
2017-Dec-02 06:30N 68°57' E 033°02'0 0.0
2017-Dec-02 06:00N 68°57' E 033°02'0 0.0
2017-Dec-02 05:30N 68°57' E 033°02'0 0.0
2017-Dec-02 05:00N 68°57' E 033°02'0 0.0
2017-Dec-02 04:30N 68°57' E 033°02'0 0.0
2017-Dec-02 04:00N 68°57' E 033°02'0 0.0
2017-Dec-02 03:30N 68°57' E 033°02'0 0.0
2017-Dec-02 03:00N 68°57' E 033°02'0 0.0
2017-Dec-02 02:30N 68°57' E 033°02'0 0.0
2017-Dec-02 02:00N 68°57' E 033°02'0 0.8
2017-Dec-02 01:30N 68°57' E 033°01'1 1.4
2017-Dec-02 01:00N 68°58' E 033°01'3 5.9
2017-Dec-02 00:31N 69°01' E 033°03'  

Dump ship's entire track history